createdAt,value
2022-08-25T00:10:23.880Z,19.27
2022-08-25T00:30:23.845Z,19.16
2022-08-25T00:50:23.822Z,19.02
2022-08-25T01:10:23.794Z,18.89
2022-08-25T01:30:23.760Z,18.87
2022-08-25T01:50:23.742Z,18.80
2022-08-25T02:10:23.701Z,18.77
2022-08-25T02:30:23.680Z,18.66
2022-08-25T02:50:23.637Z,18.48
2022-08-25T03:10:23.614Z,18.33
2022-08-25T03:30:23.578Z,18.28
2022-08-25T03:50:23.566Z,18.21
2022-08-25T04:10:23.536Z,18.15
2022-08-25T04:30:23.505Z,18.03
2022-08-25T04:50:23.462Z,18.12
2022-08-25T05:10:23.449Z,18.16
2022-08-25T05:30:23.415Z,18.31
2022-08-25T05:50:23.401Z,18.36
2022-08-25T06:10:23.361Z,18.85
2022-08-25T06:30:23.331Z,19.12
2022-08-25T06:50:23.302Z,19.50
2022-08-25T07:10:23.271Z,19.82
2022-08-25T07:30:23.242Z,20.18
2022-08-25T07:50:23.206Z,20.58
2022-08-25T08:10:23.160Z,20.85
2022-08-25T08:30:23.143Z,21.37
2022-08-25T08:50:23.135Z,21.91
2022-08-25T09:10:23.084Z,22.36
2022-08-25T09:30:23.081Z,23.00
2022-08-25T09:50:23.050Z,23.27
2022-08-25T10:10:23.032Z,23.69
2022-08-25T10:30:22.964Z,23.99
2022-08-25T10:50:22.966Z,24.48
2022-08-25T11:10:22.928Z,24.93
2022-08-25T11:30:22.863Z,25.14
2022-08-25T11:50:22.869Z,25.49
2022-08-25T12:10:22.794Z,25.30
2022-08-25T12:30:22.776Z,25.75
2022-08-25T12:50:22.779Z,26.39
2022-08-25T13:10:22.754Z,26.24
2022-08-25T13:30:22.678Z,26.52
2022-08-25T13:50:22.666Z,26.23
2022-08-25T14:10:22.605Z,26.22
2022-08-25T14:30:22.576Z,25.98
2022-08-25T14:50:22.577Z,25.84
2022-08-25T15:10:22.557Z,25.74
2022-08-25T15:30:22.486Z,25.74
2022-08-25T15:50:22.449Z,25.74
2022-08-25T16:10:22.439Z,25.65
2022-08-25T16:30:22.427Z,25.37
2022-08-25T16:50:22.362Z,25.07
2022-08-25T17:10:22.366Z,24.81
2022-08-25T17:30:22.300Z,24.58
2022-08-25T17:50:22.266Z,24.25
2022-08-25T18:10:22.225Z,23.93
2022-08-25T18:30:22.196Z,23.80
2022-08-25T18:50:22.161Z,23.61
2022-08-25T19:10:22.132Z,23.50
2022-08-25T19:30:22.115Z,23.33
2022-08-25T19:50:22.089Z,23.10
2022-08-25T20:10:22.053Z,22.93
2022-08-25T20:30:22.024Z,22.73
2022-08-25T20:50:21.980Z,22.38
2022-08-25T21:10:21.950Z,22.24
2022-08-25T21:30:22.317Z,21.99
2022-08-25T21:50:21.906Z,21.64
2022-08-25T22:10:21.856Z,21.62
2022-08-25T22:30:21.822Z,21.17
2022-08-25T22:50:21.801Z,21.10
2022-08-25T23:10:21.777Z,21.08
2022-08-25T23:30:21.741Z,20.80
2022-08-25T23:50:21.714Z,20.73
